createdAt,value
2023-01-11T00:01:33.970Z,14.70
2023-01-11T00:03:36.053Z,9.60
2023-01-11T00:05:39.908Z,5.20
2023-01-11T00:07:42.212Z,16.90
2023-01-11T00:09:47.737Z,13.37
2023-01-11T00:11:50.083Z,9.07
2023-01-11T00:13:52.225Z,18.10
2023-01-11T00:15:54.393Z,5.73
2023-01-11T00:17:57.719Z,6.10
2023-01-11T00:19:59.783Z,7.53
2023-01-11T00:22:02.859Z,8.20
2023-01-11T00:24:05.379Z,11.03
2023-01-11T00:26:13.105Z,12.07
2023-01-11T00:28:15.331Z,18.70
2023-01-11T00:30:18.576Z,7.27
2023-01-11T00:32:20.614Z,11.03
2023-01-11T00:34:22.985Z,9.50
2023-01-11T00:36:25.050Z,8.90
2023-01-11T00:38:51.220Z,5.77
2023-01-11T00:40:53.299Z,8.83
2023-01-11T00:43:13.990Z,7.47
2023-01-11T00:45:34.886Z,6.67
2023-01-11T00:47:55.500Z,9.87
2023-01-11T00:49:57.519Z,7.07
2023-01-11T00:51:59.575Z,7.37
2023-01-11T00:54:01.644Z,4.80
2023-01-11T00:56:03.882Z,6.43
2023-01-11T00:58:06.087Z,10.70
2023-01-11T01:00:09.101Z,10.83
2023-01-11T01:02:11.858Z,4.73
2023-01-11T01:04:14.001Z,11.03
2023-01-11T01:06:16.011Z,12.10
2023-01-11T01:08:18.357Z,8.37
2023-01-11T01:10:20.592Z,6.30
2023-01-11T01:12:41.504Z,3.03
2023-01-11T01:14:45.479Z,11.20
2023-01-11T01:16:48.067Z,12.87
2023-01-11T01:18:50.243Z,9.10
2023-01-11T01:20:52.342Z,5.03
2023-01-11T01:22:54.474Z,11.30
2023-01-11T01:24:56.499Z,6.90
2023-01-11T01:26:58.716Z,9.30
2023-01-11T01:29:00.794Z,8.43
2023-01-11T01:31:03.053Z,4.17
2023-01-11T01:33:05.134Z,7.93
2023-01-11T01:35:07.933Z,8.07
2023-01-11T01:37:10.776Z,6.67
2023-01-11T01:39:13.588Z,5.73
2023-01-11T01:41:16.126Z,11.10
2023-01-11T01:43:18.305Z,8.43
2023-01-11T01:45:25.627Z,5.40
2023-01-11T01:47:34.297Z,10.13
2023-01-11T01:49:36.861Z,9.90
2023-01-11T01:51:42.523Z,8.13
2023-01-11T01:53:47.264Z,4.03
2023-01-11T01:55:52.655Z,7.03
2023-01-11T01:57:55.813Z,12.20
2023-01-11T01:59:58.458Z,6.70
2023-01-11T02:02:01.195Z,7.33
2023-01-11T02:04:07.533Z,7.43
2023-01-11T02:06:10.034Z,6.87
2023-01-11T02:08:19.986Z,7.60
2023-01-11T02:10:22.936Z,6.13
2023-01-11T02:12:27.736Z,4.50
2023-01-11T02:14:32.266Z,5.90
2023-01-11T02:16:34.832Z,6.77
2023-01-11T02:18:37.273Z,7.30
2023-01-11T02:21:04.060Z,5.03
2023-01-11T02:23:30.533Z,10.23
2023-01-11T02:25:55.482Z,4.90
2023-01-11T02:28:00.502Z,6.63
2023-01-11T02:30:26.851Z,6.53
2023-01-11T02:32:37.722Z,5.63
2023-01-11T02:34:47.125Z,4.47
2023-01-11T02:37:08.007Z,4.53
2023-01-11T02:39:12.967Z,10.53
2023-01-11T02:42:03.766Z,4.77
2023-01-11T02:44:31.130Z,3.90
2023-01-11T02:46:35.895Z,6.07
2023-01-11T02:48:58.060Z,3.43
2023-01-11T02:51:07.170Z,2.80
2023-01-11T02:53:20.713Z,7.23
2023-01-11T02:55:26.795Z,4.17
2023-01-11T02:57:29.737Z,5.73
2023-01-11T02:59:34.584Z,8.10
2023-01-11T03:02:05.932Z,10.20
2023-01-11T03:04:26.745Z,6.00
2023-01-11T03:06:32.496Z,3.73
2023-01-11T03:08:58.726Z,5.77
2023-01-11T03:11:04.151Z,4.83
2023-01-11T03:13:30.900Z,3.10
2023-01-11T03:15:42.275Z,4.17
2023-01-11T03:17:50.135Z,4.37
2023-01-11T03:20:21.015Z,4.07
2023-01-11T03:22:32.845Z,2.77
2023-01-11T03:24:42.910Z,5.13
2023-01-11T03:27:21.218Z,7.13
2023-01-11T03:29:28.533Z,2.70
2023-01-11T03:31:35.245Z,6.07
2023-01-11T03:34:02.559Z,5.40
2023-01-11T03:36:23.751Z,2.70
2023-01-11T03:38:33.391Z,2.63
2023-01-11T03:40:40.260Z,4.10
2023-01-11T03:43:05.973Z,4.23
2023-01-11T03:45:08.590Z,2.90
2023-01-11T03:47:13.442Z,4.77
2023-01-11T03:49:24.126Z,4.53
2023-01-11T03:51:28.045Z,4.93
2023-01-11T03:53:32.051Z,4.97
2023-01-11T03:55:40.049Z,9.93
2023-01-11T03:57:51.503Z,5.13
2023-01-11T03:59:53.624Z,7.37
2023-01-11T04:01:56.202Z,5.93
2023-01-11T04:03:58.241Z,2.13
2023-01-11T04:06:01.745Z,4.00
2023-01-11T04:08:03.941Z,4.47
2023-01-11T04:10:06.598Z,5.07
2023-01-11T04:12:08.811Z,7.53
2023-01-11T04:14:11.233Z,4.73
2023-01-11T04:16:13.279Z,2.50
2023-01-11T04:18:15.330Z,6.43
2023-01-11T04:20:17.540Z,4.53
2023-01-11T04:22:19.631Z,4.73
2023-01-11T04:24:21.834Z,2.47
2023-01-11T04:26:23.932Z,5.77
2023-01-11T04:28:25.955Z,9.77
2023-01-11T04:30:28.045Z,4.77
2023-01-11T04:32:30.101Z,2.37
2023-01-11T04:34:32.116Z,4.17
2023-01-11T04:36:34.182Z,3.53
2023-01-11T04:38:36.644Z,3.10
2023-01-11T04:40:38.662Z,3.97
2023-01-11T04:42:40.769Z,3.23
2023-01-11T04:44:43.021Z,4.20
2023-01-11T04:46:45.174Z,11.47
2023-01-11T04:48:47.485Z,5.03
2023-01-11T04:50:49.683Z,2.90
2023-01-11T04:52:52.204Z,5.47
2023-01-11T04:54:54.445Z,2.33
2023-01-11T04:56:56.510Z,3.30
2023-01-11T04:58:58.542Z,3.77
2023-01-11T05:01:00.865Z,2.43
2023-01-11T05:03:03.469Z,8.70
2023-01-11T05:05:06.756Z,6.87
2023-01-11T05:07:09.127Z,7.20
2023-01-11T05:09:16.083Z,3.83
2023-01-11T05:11:18.440Z,5.33
2023-01-11T05:13:20.722Z,4.93
2023-01-11T05:15:22.889Z,2.87
2023-01-11T05:17:24.964Z,5.73
2023-01-11T05:19:27.111Z,3.80
2023-01-11T05:21:34.723Z,4.47
2023-01-11T05:23:37.230Z,3.33
2023-01-11T05:25:39.363Z,6.53
2023-01-11T05:27:41.389Z,2.50
2023-01-11T05:29:44.290Z,2.07
2023-01-11T05:31:46.807Z,5.10
2023-01-11T05:33:48.982Z,2.90
2023-01-11T05:35:53.327Z,5.30
2023-01-11T05:37:56.573Z,4.30
2023-01-11T05:39:58.614Z,7.80
2023-01-11T05:42:00.648Z,2.80
2023-01-11T05:44:21.375Z,2.53
2023-01-11T05:46:23.738Z,3.50
2023-01-11T05:48:26.114Z,6.50
2023-01-11T05:50:28.356Z,4.40
2023-01-11T05:52:30.478Z,3.20
2023-01-11T05:54:32.579Z,6.03
2023-01-11T05:56:34.665Z,4.40
2023-01-11T05:58:36.705Z,3.77
2023-01-11T06:00:38.690Z,2.93
2023-01-11T06:02:40.944Z,9.43
2023-01-11T06:04:43.056Z,2.60
2023-01-11T06:06:45.196Z,3.17
2023-01-11T06:08:47.315Z,4.57
2023-01-11T06:10:53.450Z,3.27
2023-01-11T06:13:15.393Z,5.80
2023-01-11T06:15:17.401Z,4.03
2023-01-11T06:17:19.506Z,7.83
2023-01-11T06:19:21.570Z,8.80
2023-01-11T06:21:24.391Z,5.40
2023-01-11T06:23:29.253Z,6.30
2023-01-11T06:25:32.802Z,7.07
2023-01-11T06:27:34.860Z,2.60
2023-01-11T06:29:36.898Z,7.10
2023-01-11T06:31:38.936Z,4.63
2023-01-11T06:33:41.006Z,2.87
2023-01-11T06:35:43.609Z,4.23
2023-01-11T06:37:45.649Z,2.80
2023-01-11T06:39:47.671Z,4.60
2023-01-11T06:41:49.673Z,5.90
2023-01-11T06:43:51.703Z,4.13
2023-01-11T06:45:54.437Z,3.50
2023-01-11T06:47:56.841Z,10.03
2023-01-11T06:49:59.056Z,5.57
2023-01-11T06:52:01.081Z,4.57
2023-01-11T06:54:03.168Z,3.23
2023-01-11T06:56:05.821Z,3.23
2023-01-11T06:58:07.917Z,3.83
2023-01-11T07:00:10.748Z,3.40
2023-01-11T07:02:13.075Z,5.40
2023-01-11T07:04:15.812Z,2.90
2023-01-11T07:06:18.070Z,2.90
2023-01-11T07:08:20.614Z,2.77
2023-01-11T07:10:22.667Z,7.03
2023-01-11T07:12:24.757Z,5.23
2023-01-11T07:14:26.760Z,3.00
2023-01-11T07:16:28.828Z,5.73
2023-01-11T07:18:31.851Z,3.63
2023-01-11T07:20:33.948Z,3.27
2023-01-11T07:22:36.877Z,4.20
2023-01-11T07:24:39.017Z,2.90
2023-01-11T07:26:42.046Z,3.33
2023-01-11T07:28:44.084Z,2.63
2023-01-11T07:30:57.626Z,2.90
2023-01-11T07:33:00.857Z,3.83
2023-01-11T07:35:03.021Z,6.30
2023-01-11T07:37:05.341Z,2.30
2023-01-11T07:39:07.965Z,2.57
2023-01-11T07:41:28.844Z,4.93
2023-01-11T07:43:34.357Z,3.47
2023-01-11T07:45:45.323Z,5.37
2023-01-11T07:47:52.100Z,2.70
2023-01-11T07:49:54.141Z,2.77
2023-01-11T07:51:56.225Z,1.90
2023-01-11T07:54:02.437Z,2.70
2023-01-11T07:56:04.674Z,3.50
2023-01-11T07:58:07.772Z,2.67
2023-01-11T08:00:10.585Z,3.57
2023-01-11T08:02:15.312Z,2.40
2023-01-11T08:04:17.505Z,2.17
2023-01-11T08:06:19.667Z,2.00
2023-01-11T08:08:21.925Z,2.27
2023-01-11T08:10:24.147Z,2.00
2023-01-11T08:12:45.048Z,1.90
2023-01-11T08:14:47.305Z,2.60
2023-01-11T08:16:49.422Z,1.70
2023-01-11T08:18:52.718Z,1.73
2023-01-11T08:20:54.848Z,2.07
2023-01-11T08:22:56.933Z,2.20
2023-01-11T08:24:58.947Z,2.10
2023-01-11T08:27:01.954Z,2.37
2023-01-11T08:29:04.153Z,2.20
2023-01-11T08:31:09.442Z,2.80
2023-01-11T08:33:11.706Z,3.83
2023-01-11T08:35:13.937Z,2.63
2023-01-11T08:37:15.978Z,4.37
2023-01-11T08:39:18.155Z,2.40
2023-01-11T08:41:20.279Z,2.20
2023-01-11T08:43:22.357Z,4.50
2023-01-11T08:45:25.186Z,2.80
2023-01-11T08:47:27.488Z,3.80
2023-01-11T08:49:30.588Z,3.20
2023-01-11T08:51:32.787Z,2.60
2023-01-11T08:53:35.142Z,3.33
2023-01-11T08:55:37.405Z,4.20
2023-01-11T08:57:39.475Z,2.00
2023-01-11T08:59:42.157Z,2.90
2023-01-11T09:01:44.490Z,3.13
2023-01-11T09:03:46.569Z,3.63
2023-01-11T09:05:48.721Z,3.60
2023-01-11T09:07:50.750Z,2.37
2023-01-11T09:09:53.003Z,2.90
2023-01-11T09:11:56.631Z,4.80
2023-01-11T09:13:59.044Z,3.07
2023-01-11T09:16:01.105Z,1.93
2023-01-11T09:18:03.240Z,2.83
2023-01-11T09:20:05.847Z,3.57
2023-01-11T09:22:07.883Z,2.20
2023-01-11T09:24:09.991Z,1.87
2023-01-11T09:26:12.589Z,2.10
2023-01-11T09:28:14.659Z,2.30
2023-01-11T09:30:19.571Z,1.83
2023-01-11T09:32:22.103Z,1.83
2023-01-11T09:34:27.190Z,1.43
2023-01-11T09:36:32.091Z,2.40
2023-01-11T09:38:34.999Z,1.70
2023-01-11T09:41:14.153Z,1.73
2023-01-11T09:43:17.777Z,2.10
2023-01-11T09:45:23.424Z,4.30
2023-01-11T09:47:43.877Z,1.80
2023-01-11T09:49:52.317Z,2.30
2023-01-11T09:52:22.107Z,5.23
2023-01-11T09:54:26.729Z,1.83
2023-01-11T09:56:36.650Z,2.30
2023-01-11T09:58:51.147Z,2.50
2023-01-11T10:01:11.296Z,2.77
2023-01-11T10:03:49.065Z,3.00
2023-01-11T10:06:22.385Z,3.10
2023-01-11T10:18:26.728Z,2.60
2023-01-11T10:19:36.494Z,9.67
2023-01-11T10:21:54.949Z,2.57
2023-01-11T10:24:17.100Z,2.20
2023-01-11T10:26:28.448Z,3.50
2023-01-11T10:28:37.171Z,1.73
2023-01-11T10:31:03.590Z,3.73
2023-01-11T10:33:46.787Z,2.80
2023-01-11T10:36:15.004Z,2.10
2023-01-11T10:38:46.655Z,3.20
2023-01-11T10:41:14.813Z,2.07
2023-01-11T10:43:21.909Z,2.50
2023-01-11T10:45:37.492Z,2.73
2023-01-11T10:47:45.393Z,3.17
2023-01-11T10:50:10.809Z,2.87
2023-01-11T10:52:23.406Z,3.47
2023-01-11T10:54:32.001Z,11.57
2023-01-11T10:57:08.168Z,27.10
2023-01-11T10:59:36.047Z,7.23
2023-01-11T11:01:58.449Z,4.40
2023-01-11T11:04:34.358Z,9.97
2023-01-11T11:06:47.167Z,3.40
2023-01-11T11:08:53.558Z,4.13
2023-01-11T11:11:04.464Z,2.10
2023-01-11T11:13:18.344Z,2.40
2023-01-11T11:15:28.402Z,3.97
2023-01-11T11:17:35.723Z,3.23
2023-01-11T11:19:38.124Z,2.30
2023-01-11T11:21:42.359Z,4.10
2023-01-11T11:23:45.054Z,4.50
2023-01-11T11:25:59.717Z,2.90
2023-01-11T11:28:07.501Z,4.70
2023-01-11T11:30:13.926Z,2.90
2023-01-11T11:32:31.723Z,2.87
2023-01-11T11:34:33.887Z,2.87
2023-01-11T11:36:50.647Z,2.30
2023-01-11T11:39:05.432Z,1.60
2023-01-11T11:41:10.253Z,1.80
2023-01-11T11:43:20.141Z,1.80
2023-01-11T11:45:22.210Z,7.60
2023-01-11T11:47:24.310Z,1.90
2023-01-11T11:49:27.268Z,2.00
2023-01-11T11:51:29.452Z,4.57
2023-01-11T11:53:48.184Z,3.10
2023-01-11T11:55:51.510Z,2.33
2023-01-11T11:57:54.037Z,2.27
2023-01-11T12:00:22.785Z,4.13
2023-01-11T12:02:29.870Z,1.70
2023-01-11T12:04:47.370Z,2.50
2023-01-11T12:07:05.723Z,3.57
2023-01-11T12:09:12.905Z,3.00
2023-01-11T12:11:20.826Z,2.37
2023-01-11T12:13:42.744Z,1.47
2023-01-11T12:15:56.623Z,2.27
2023-01-11T12:18:28.877Z,1.80
2023-01-11T12:20:34.009Z,1.80
2023-01-11T12:22:36.074Z,1.93
2023-01-11T12:24:38.440Z,3.90
2023-01-11T12:27:01.738Z,2.30
2023-01-11T12:29:12.673Z,2.13
2023-01-11T12:31:33.562Z,1.77
2023-01-11T12:33:43.557Z,1.90
2023-01-11T12:35:52.318Z,2.20
2023-01-11T12:38:03.272Z,2.17
2023-01-11T12:40:11.627Z,2.80
2023-01-11T12:42:29.222Z,3.93
2023-01-11T12:44:41.599Z,2.60
2023-01-11T12:46:54.089Z,7.33
2023-01-11T12:48:59.868Z,2.63
2023-01-11T12:51:24.355Z,5.40
2023-01-11T12:53:59.162Z,5.10
2023-01-11T12:56:04.218Z,8.73
2023-01-11T12:58:25.816Z,3.27
2023-01-11T13:00:50.901Z,2.83
2023-01-11T13:03:14.240Z,4.07
2023-01-11T13:05:26.360Z,6.03
2023-01-11T13:07:42.322Z,2.50
2023-01-11T13:09:47.252Z,2.50
2023-01-11T13:12:16.127Z,2.87
2023-01-11T13:14:27.410Z,3.73
2023-01-11T13:16:33.228Z,4.50
2023-01-11T13:18:45.598Z,7.33
2023-01-11T13:21:01.218Z,10.30
2023-01-11T13:23:15.522Z,4.93
2023-01-11T13:25:23.072Z,3.60
2023-01-11T13:27:26.099Z,2.30
2023-01-11T13:29:29.887Z,4.73
2023-01-11T13:31:34.152Z,3.63
2023-01-11T13:33:38.292Z,2.83
2023-01-11T13:35:44.160Z,2.47
2023-01-11T13:38:15.964Z,1.87
2023-01-11T13:40:24.599Z,2.40
2023-01-11T13:42:39.408Z,2.17
2023-01-11T13:44:51.132Z,1.80
2023-01-11T13:47:02.888Z,1.60
2023-01-11T13:49:10.958Z,2.20
2023-01-11T13:51:35.980Z,2.10
2023-01-11T13:53:50.039Z,2.13
2023-01-11T13:56:02.989Z,7.70
2023-01-11T13:58:06.668Z,2.93
2023-01-11T14:00:21.167Z,1.97
2023-01-11T14:03:04.788Z,2.80
2023-01-11T14:05:19.588Z,2.60
2023-01-11T14:07:24.279Z,3.00
2023-01-11T14:09:26.235Z,3.20
2023-01-11T14:11:34.142Z,2.70
2023-01-11T14:14:13.268Z,2.27
2023-01-11T14:16:20.956Z,1.97
2023-01-11T14:18:55.270Z,3.10
2023-01-11T14:21:18.919Z,2.70
2023-01-11T14:23:24.386Z,1.93
2023-01-11T14:25:43.440Z,2.10
2023-01-11T14:28:11.996Z,3.20
2023-01-11T14:30:28.183Z,1.70
2023-01-11T14:32:45.594Z,2.40
2023-01-11T14:35:24.281Z,2.20
2023-01-11T14:37:50.853Z,2.87
2023-01-11T14:40:31.312Z,2.20
2023-01-11T14:43:07.360Z,1.93
2023-01-11T14:45:21.231Z,4.37
2023-01-11T14:47:59.710Z,2.23
2023-01-11T14:50:16.239Z,2.13
2023-01-11T14:52:38.595Z,1.87
2023-01-11T14:54:45.804Z,1.90
2023-01-11T14:56:51.578Z,2.10
2023-01-11T14:59:12.153Z,4.97
2023-01-11T15:01:14.321Z,3.80
2023-01-11T15:03:18.193Z,4.40
2023-01-11T15:05:29.386Z,2.90
2023-01-11T15:07:31.491Z,4.93
2023-01-11T15:09:43.976Z,2.50
2023-01-11T15:11:46.113Z,2.73
2023-01-11T15:13:53.442Z,1.70
2023-01-11T15:16:37.335Z,1.53
2023-01-11T15:18:45.875Z,2.07
2023-01-11T15:20:52.785Z,1.80
2023-01-11T15:23:00.485Z,2.20
2023-01-11T15:25:23.824Z,2.27
2023-01-11T15:27:33.615Z,2.63
2023-01-11T15:29:41.805Z,3.07
2023-01-11T15:32:02.131Z,1.90
2023-01-11T15:34:17.876Z,4.87
2023-01-11T15:36:23.552Z,2.20
2023-01-11T15:38:50.821Z,2.70
2023-01-11T15:40:54.233Z,2.70
2023-01-11T15:43:17.920Z,2.83
2023-01-11T15:46:05.749Z,2.20
2023-01-11T15:48:26.225Z,3.23
2023-01-11T15:50:53.074Z,3.13
2023-01-11T15:53:17.699Z,3.27
2023-01-11T15:55:22.760Z,3.70
2023-01-11T15:57:40.024Z,5.93
2023-01-11T16:00:01.510Z,5.10
2023-01-11T16:02:09.129Z,2.97
2023-01-11T16:04:34.228Z,3.07
2023-01-11T16:06:36.262Z,2.80
2023-01-11T16:08:58.932Z,3.20
2023-01-11T16:11:11.179Z,2.17
2023-01-11T16:14:00.950Z,2.60
2023-01-11T16:16:06.225Z,1.97
2023-01-11T16:18:14.622Z,2.13
2023-01-11T16:20:19.269Z,3.10
2023-01-11T16:22:25.216Z,3.70
2023-01-11T16:24:32.362Z,4.73
2023-01-11T16:26:36.084Z,3.73
2023-01-11T16:28:41.553Z,2.87
2023-01-11T16:30:46.616Z,3.50
2023-01-11T16:32:48.786Z,4.13
2023-01-11T16:34:53.594Z,4.80
2023-01-11T16:36:57.680Z,2.70
2023-01-11T16:39:05.660Z,4.20
2023-01-11T16:41:08.861Z,3.17
2023-01-11T16:43:23.737Z,3.47
2023-01-11T16:45:39.941Z,3.80
2023-01-11T16:48:14.035Z,4.33
2023-01-11T16:50:22.326Z,2.87
2023-01-11T16:52:27.147Z,5.20
2023-01-11T16:54:32.493Z,5.57
2023-01-11T16:56:35.440Z,4.03
2023-01-11T16:58:39.179Z,2.80
2023-01-11T17:00:41.751Z,5.00
2023-01-11T17:02:47.732Z,3.77
2023-01-11T17:04:51.122Z,3.33
2023-01-11T17:06:53.539Z,3.40
2023-01-11T17:08:57.120Z,3.00
2023-01-11T17:11:03.087Z,4.90
2023-01-11T17:13:55.001Z,3.00
2023-01-11T17:16:10.000Z,4.13
2023-01-11T17:18:12.294Z,3.03
2023-01-11T17:20:22.948Z,3.10
2023-01-11T17:22:28.426Z,4.97
2023-01-11T17:24:31.303Z,3.50
2023-01-11T17:26:43.747Z,3.20
2023-01-11T17:28:47.185Z,2.90
2023-01-11T17:30:51.089Z,3.00
2023-01-11T17:32:55.558Z,3.00
2023-01-11T17:34:57.791Z,4.00
2023-01-11T17:37:01.121Z,5.60
2023-01-11T17:39:04.065Z,4.40
2023-01-11T17:41:27.107Z,3.80
2023-01-11T17:43:48.474Z,4.13
2023-01-11T17:45:58.156Z,4.67
2023-01-11T17:48:10.710Z,5.83
2023-01-11T17:50:33.131Z,3.90
2023-01-11T17:52:41.031Z,5.13
2023-01-11T17:54:46.183Z,5.50
2023-01-11T17:57:06.525Z,4.70
2023-01-11T17:59:11.310Z,3.80
2023-01-11T18:01:18.337Z,3.40
2023-01-11T18:06:25.193Z,4.43
2023-01-11T18:08:27.343Z,15.20
2023-01-11T18:10:32.515Z,10.50
2023-01-11T18:12:35.139Z,13.10
2023-01-11T18:14:55.279Z,15.17
2023-01-11T18:17:01.713Z,14.40
2023-01-11T18:19:23.284Z,14.20
2023-01-11T18:21:25.502Z,11.60
2023-01-11T18:23:27.773Z,12.17
2023-01-11T18:25:31.715Z,9.13
2023-01-11T18:27:35.124Z,11.20
2023-01-11T18:29:37.208Z,22.23
2023-01-11T18:31:41.843Z,29.73
2023-01-11T18:33:44.817Z,20.10
2023-01-11T18:35:55.326Z,28.77
2023-01-11T18:37:57.549Z,16.73
2023-01-11T18:40:01.293Z,11.63
2023-01-11T18:42:08.260Z,12.50
2023-01-11T18:44:12.004Z,12.00
2023-01-11T18:46:14.250Z,14.80
2023-01-11T18:48:16.993Z,11.87
2023-01-11T18:50:19.807Z,17.23
2023-01-11T18:52:27.745Z,10.93
2023-01-11T18:54:29.939Z,10.70
2023-01-11T18:56:32.100Z,13.13
2023-01-11T18:58:34.253Z,11.67
2023-01-11T19:00:37.256Z,9.80
2023-01-11T19:02:43.491Z,10.87
2023-01-11T19:04:46.101Z,9.00
2023-01-11T19:06:48.473Z,9.40
2023-01-11T19:08:50.553Z,20.33
2023-01-11T19:10:52.666Z,18.23
2023-01-11T19:12:55.018Z,15.63
2023-01-11T19:14:57.231Z,13.10
2023-01-11T19:16:59.394Z,15.07
2023-01-11T19:19:01.436Z,12.80
2023-01-11T19:21:10.985Z,13.07
2023-01-11T19:23:13.235Z,14.30
2023-01-11T19:25:15.236Z,18.50
2023-01-11T19:27:17.561Z,15.37
2023-01-11T19:29:20.290Z,25.80
2023-01-11T19:31:22.391Z,12.10
2023-01-11T19:33:25.355Z,15.60
2023-01-11T19:35:27.432Z,16.77
2023-01-11T19:37:34.089Z,21.53
2023-01-11T19:39:36.475Z,15.23
2023-01-11T19:41:54.899Z,20.20
2023-01-11T19:43:57.020Z,17.77
2023-01-11T19:45:59.147Z,24.40
2023-01-11T19:48:02.446Z,21.80
2023-01-11T19:50:07.852Z,18.50
2023-01-11T19:52:18.853Z,23.73
2023-01-11T19:54:22.087Z,14.53
2023-01-11T19:56:24.187Z,26.10
2023-01-11T19:58:26.978Z,20.60
2023-01-11T20:00:30.139Z,22.13
2023-01-11T20:02:32.543Z,20.27
2023-01-11T20:04:34.780Z,24.07
2023-01-11T20:06:42.133Z,16.77
2023-01-11T20:08:44.165Z,19.87
2023-01-11T20:10:47.770Z,17.63
2023-01-11T20:12:49.917Z,13.07
2023-01-11T20:14:54.531Z,22.00
2023-01-11T20:16:57.423Z,26.67
2023-01-11T20:18:59.771Z,18.77
2023-01-11T20:21:01.968Z,19.17
2023-01-11T20:23:04.033Z,17.37
2023-01-11T20:25:06.721Z,14.57
2023-01-11T20:27:08.864Z,13.17
2023-01-11T20:29:10.912Z,17.63
2023-01-11T20:31:13.037Z,12.70
2023-01-11T20:33:15.160Z,14.37
2023-01-11T20:35:17.334Z,11.50
2023-01-11T20:37:20.544Z,11.40
2023-01-11T20:39:22.524Z,14.90
2023-01-11T20:41:44.385Z,14.40
2023-01-11T20:43:46.463Z,11.97
2023-01-11T20:45:56.526Z,15.90
2023-01-11T20:47:59.249Z,19.23
2023-01-11T20:50:01.214Z,17.03
2023-01-11T20:52:03.905Z,18.03
2023-01-11T20:54:06.506Z,12.77
2023-01-11T20:56:09.018Z,11.90
2023-01-11T20:58:11.353Z,14.70
2023-01-11T21:00:14.582Z,25.90
2023-01-11T21:02:16.592Z,10.63
2023-01-11T21:04:18.738Z,13.37
2023-01-11T21:06:20.877Z,18.67
2023-01-11T21:08:22.892Z,13.00
2023-01-11T21:10:25.073Z,12.23
2023-01-11T21:12:27.076Z,22.77
2023-01-11T21:14:29.206Z,10.63
2023-01-11T21:16:31.812Z,13.47
2023-01-11T21:18:33.945Z,13.47
2023-01-11T21:20:35.973Z,11.37
2023-01-11T21:22:37.958Z,9.00
2023-01-11T21:24:41.085Z,11.57
2023-01-11T21:26:45.611Z,14.43
2023-01-11T21:28:59.533Z,11.37
2023-01-11T21:31:05.346Z,16.07
2023-01-11T21:33:07.312Z,14.40
2023-01-11T21:35:09.623Z,10.20
2023-01-11T21:37:11.687Z,13.33
2023-01-11T21:39:14.655Z,13.27
2023-01-11T21:41:43.923Z,8.67
2023-01-11T21:43:45.887Z,8.33
2023-01-11T21:45:55.658Z,11.97
2023-01-11T21:47:57.741Z,17.87
2023-01-11T21:49:59.800Z,13.30
2023-01-11T21:52:02.198Z,15.63
2023-01-11T21:54:06.304Z,8.13
2023-01-11T21:56:08.851Z,10.20
2023-01-11T21:58:10.887Z,17.27
2023-01-11T22:00:14.631Z,9.60
2023-01-11T22:02:16.726Z,11.23
2023-01-11T22:04:20.450Z,14.53
2023-01-11T22:06:22.470Z,10.53
2023-01-11T22:08:24.457Z,20.43
2023-01-11T22:10:27.073Z,17.10
2023-01-11T22:12:29.089Z,15.63
2023-01-11T22:14:31.170Z,15.17
2023-01-11T22:16:33.683Z,19.87
2023-01-11T22:18:36.164Z,14.37
2023-01-11T22:20:38.141Z,16.13
2023-01-11T22:22:40.178Z,16.10
2023-01-11T22:24:42.225Z,14.43
2023-01-11T22:26:44.289Z,15.57
2023-01-11T22:29:05.993Z,12.80
2023-01-11T22:31:08.060Z,8.50
2023-01-11T22:33:10.146Z,9.57
2023-01-11T22:35:12.122Z,10.80
2023-01-11T22:37:14.106Z,12.70
2023-01-11T22:39:16.809Z,15.00
2023-01-11T22:41:19.109Z,13.70
2023-01-11T22:43:21.082Z,11.37
2023-01-11T22:45:23.134Z,7.37
2023-01-11T22:47:25.265Z,13.30
2023-01-11T22:49:27.296Z,9.63
2023-01-11T22:51:29.322Z,20.27
2023-01-11T22:53:35.814Z,17.50
2023-01-11T22:55:37.715Z,13.47
2023-01-11T22:57:39.751Z,15.10
2023-01-11T22:59:41.825Z,9.83
2023-01-11T23:01:44.485Z,19.07
2023-01-11T23:03:46.909Z,9.87
2023-01-11T23:05:48.973Z,16.03
2023-01-11T23:07:50.977Z,19.67
2023-01-11T23:09:52.959Z,19.63
2023-01-11T23:12:13.356Z,9.93
2023-01-11T23:14:17.356Z,12.57
2023-01-11T23:16:19.906Z,7.10
2023-01-11T23:18:21.971Z,8.80
2023-01-11T23:20:24.043Z,15.53
2023-01-11T23:22:26.122Z,16.23
2023-01-11T23:24:31.371Z,12.63
2023-01-11T23:26:33.500Z,8.27
2023-01-11T23:28:35.480Z,14.23
2023-01-11T23:30:37.481Z,13.57
2023-01-11T23:32:39.447Z,13.57
2023-01-11T23:34:41.461Z,11.43
2023-01-11T23:36:43.507Z,11.03
2023-01-11T23:38:46.286Z,8.53
2023-01-11T23:41:06.603Z,9.23
2023-01-11T23:43:08.698Z,18.83
2023-01-11T23:45:11.023Z,13.90
2023-01-11T23:47:22.635Z,10.30
2023-01-11T23:49:25.099Z,7.70
2023-01-11T23:51:27.084Z,7.87
2023-01-11T23:53:29.581Z,10.27
2023-01-11T23:55:31.592Z,22.10
2023-01-11T23:57:33.662Z,17.87
2023-01-11T23:59:35.759Z,9.60
